createdAt,value
2022-09-09T00:01:35.303Z,99034.47
2022-09-09T00:04:14.052Z,99028.22
2022-09-09T00:06:57.831Z,99021.69
2022-09-09T00:09:29.383Z,99037.38
2022-09-09T00:12:05.367Z,99034.69
2022-09-09T00:14:43.474Z,99021.34
2022-09-09T00:17:34.985Z,99017.72
2022-09-09T00:20:25.690Z,99023.06
2022-09-09T00:23:10.243Z,99020.03
2022-09-09T00:25:52.272Z,99015.69
2022-09-09T00:28:21.310Z,99013.91
2022-09-09T00:30:50.988Z,99018.72
2022-09-09T00:33:23.154Z,99022.13
2022-09-09T00:35:57.433Z,99026.81
2022-09-09T00:38:29.928Z,99030.25
2022-09-09T00:41:06.373Z,99026.72
2022-09-09T00:43:37.025Z,99022.69
2022-09-09T00:46:34.226Z,99016.69
2022-09-09T00:49:26.591Z,99022.69
2022-09-09T00:52:11.129Z,99022.03
2022-09-09T00:54:54.124Z,99014.63
2022-09-09T00:57:29.073Z,99020.94
2022-09-09T01:00:19.544Z,99020.72
2022-09-09T01:07:09.181Z,99015.81
2022-09-09T01:09:53.274Z,99018.31
2022-09-09T01:12:44.570Z,99018.47
2022-09-09T01:15:22.418Z,99026.84
2022-09-09T01:18:10.975Z,99016.34
2022-09-09T01:20:52.692Z,99018.91
2022-09-09T01:23:47.285Z,99025.13
2022-09-09T01:26:40.492Z,99018.31
2022-09-09T01:29:15.349Z,99020.69
2022-09-09T01:32:04.127Z,99019.28
2022-09-09T01:34:41.171Z,99024.63
2022-09-09T01:37:10.575Z,99024.13
2022-09-09T01:39:40.745Z,99027.16
2022-09-09T01:42:14.550Z,99020.19
2022-09-09T01:44:41.723Z,99021.44
2022-09-09T01:47:08.384Z,99024.25
2022-09-09T01:49:40.971Z,99013.63
2022-09-09T01:52:17.205Z,99021.09
2022-09-09T01:54:44.029Z,99025.13
2022-09-09T01:57:42.878Z,99015.09
2022-09-09T02:00:15.094Z,99014.63
2022-09-09T02:03:04.910Z,99019.63
2022-09-09T02:06:00.926Z,99024.13
2022-09-09T02:08:42.507Z,99027.50
2022-09-09T02:11:17.916Z,99032.53
2022-09-09T02:14:28.835Z,99030.72
2022-09-09T02:17:02.744Z,99020.97
2022-09-09T02:19:46.990Z,99028.22
2022-09-09T02:22:25.460Z,99032.44
2022-09-09T02:24:56.503Z,99032.78
2022-09-09T02:27:26.758Z,99026.44
2022-09-09T02:29:56.626Z,99034.38
2022-09-09T02:32:37.003Z,99035.38
2022-09-09T02:35:15.573Z,99032.09
2022-09-09T02:37:48.893Z,99026.13
2022-09-09T02:40:16.828Z,99023.31
2022-09-09T02:42:49.362Z,99021.66
2022-09-09T02:45:20.267Z,99015.34
2022-09-09T02:52:06.732Z,99002.53
2022-09-09T02:54:38.906Z,98999.41
2022-09-09T02:57:18.246Z,99002.53
2022-09-09T02:59:48.189Z,99006.69
2022-09-09T03:02:15.036Z,99008.00
2022-09-09T03:04:45.353Z,99009.34
2022-09-09T03:07:13.155Z,99007.34
2022-09-09T03:09:41.385Z,99010.66
2022-09-09T03:12:08.092Z,99014.00
2022-09-09T03:14:35.323Z,99012.13
2022-09-09T03:17:03.253Z,99006.34
2022-09-09T03:19:36.154Z,99011.66
2022-09-09T03:22:05.332Z,99010.66
2022-09-09T03:24:36.408Z,99015.19
2022-09-09T03:27:04.780Z,99014.81
2022-09-09T03:29:31.522Z,99009.78
2022-09-09T03:32:00.675Z,99018.13
2022-09-09T03:34:28.075Z,99025.97
2022-09-09T03:36:55.394Z,99023.31
2022-09-09T03:39:22.586Z,99030.34
2022-09-09T03:41:49.366Z,99033.72
2022-09-09T03:44:15.891Z,99043.97
2022-09-09T03:46:43.287Z,99050.63
2022-09-09T03:49:11.196Z,99042.28
2022-09-09T03:51:37.701Z,99036.94
2022-09-09T03:54:09.033Z,99030.34
2022-09-09T03:56:36.386Z,99029.94
2022-09-09T03:59:03.601Z,99032.47
2022-09-09T04:01:30.430Z,99035.63
2022-09-09T04:03:59.018Z,99026.59
2022-09-09T04:06:25.779Z,99026.47
2022-09-09T04:08:53.463Z,99026.94
2022-09-09T04:11:21.150Z,99020.47
2022-09-09T04:13:50.268Z,99023.59
2022-09-09T04:16:18.241Z,99027.72
2022-09-09T04:18:44.815Z,99028.41
2022-09-09T04:21:13.905Z,99018.94
2022-09-09T04:23:40.940Z,99025.38
2022-09-09T04:26:07.775Z,99035.47
2022-09-09T04:28:37.682Z,99036.44
2022-09-09T04:31:18.820Z,99046.09
2022-09-09T04:33:47.459Z,99046.16
2022-09-09T04:36:14.786Z,99046.03
2022-09-09T04:38:42.224Z,99026.88
2022-09-09T04:41:08.979Z,99037.53
2022-09-09T04:43:38.251Z,99050.53
2022-09-09T04:46:07.057Z,99040.56
2022-09-09T04:48:33.985Z,99040.38
2022-09-09T04:51:05.787Z,99037.69
2022-09-09T04:53:35.159Z,99029.56
2022-09-09T04:56:04.216Z,99024.63
2022-09-09T04:58:32.998Z,99036.75
2022-09-09T05:01:10.936Z,99038.75
2022-09-09T05:03:39.444Z,99049.41
2022-09-09T05:06:13.662Z,99048.41
2022-09-09T05:08:41.522Z,99060.28
2022-09-09T05:11:20.780Z,99053.13
2022-09-09T05:13:47.958Z,99054.13
2022-09-09T05:16:15.284Z,99051.81
2022-09-09T05:18:45.238Z,99054.44
2022-09-09T05:21:12.396Z,99048.81
2022-09-09T05:23:39.381Z,99045.75
2022-09-09T05:26:06.944Z,99051.44
2022-09-09T05:28:36.284Z,99053.09
2022-09-09T05:31:08.868Z,99052.28
2022-09-09T05:33:36.485Z,99065.09
2022-09-09T05:36:05.872Z,99057.59
2022-09-09T05:38:33.860Z,99069.44
2022-09-09T05:41:02.385Z,99079.81
2022-09-09T05:43:30.373Z,99058.81
2022-09-09T05:46:11.274Z,99071.47
2022-09-09T05:48:41.067Z,99071.94
2022-09-09T05:51:10.712Z,99070.13
2022-09-09T05:53:37.909Z,99075.00
2022-09-09T05:56:11.577Z,99075.13
2022-09-09T05:58:38.502Z,99078.28
2022-09-09T06:01:10.853Z,99080.59
2022-09-09T06:03:39.380Z,99069.44
2022-09-09T06:06:08.690Z,99069.81
2022-09-09T06:08:39.335Z,99074.44
2022-09-09T06:11:09.136Z,99077.44
2022-09-09T06:13:38.082Z,99085.75
2022-09-09T06:16:05.554Z,99075.72
2022-09-09T06:18:31.981Z,99082.56
2022-09-09T06:21:05.205Z,99076.31
2022-09-09T06:23:32.292Z,99079.50
2022-09-09T06:26:10.450Z,99075.69
2022-09-09T06:28:37.468Z,99066.03
2022-09-09T06:31:07.312Z,99069.16
2022-09-09T06:33:41.893Z,99062.28
2022-09-09T06:36:13.505Z,99068.09
2022-09-09T06:38:39.962Z,99062.78
2022-09-09T06:41:06.753Z,99054.06
2022-09-09T06:43:33.744Z,99060.53
2022-09-09T06:46:06.609Z,99055.03
2022-09-09T06:48:33.755Z,99053.31
2022-09-09T06:51:08.313Z,99056.47
2022-09-09T06:53:37.123Z,99058.59
2022-09-09T06:56:19.900Z,99062.22
2022-09-09T06:58:46.433Z,99057.06
2022-09-09T07:01:25.074Z,99064.19
2022-09-09T07:03:54.175Z,99061.75
2022-09-09T07:06:24.549Z,99052.53
2022-09-09T07:08:56.470Z,99056.78
2022-09-09T07:11:29.667Z,99064.72
2022-09-09T07:13:58.485Z,99060.69
2022-09-09T07:16:25.876Z,99059.00
2022-09-09T07:18:53.749Z,99064.72
2022-09-09T07:21:21.951Z,99067.22
2022-09-09T07:23:49.618Z,99067.22
2022-09-09T07:26:22.909Z,99068.69
2022-09-09T07:28:50.679Z,99068.88
2022-09-09T07:31:20.022Z,99084.91
2022-09-09T07:33:48.354Z,99071.94
2022-09-09T07:36:23.670Z,99069.19
2022-09-09T07:38:52.660Z,99072.34
2022-09-09T07:41:22.566Z,99084.94
2022-09-09T07:43:51.776Z,99085.06
2022-09-09T07:46:20.364Z,99089.03
2022-09-09T07:48:52.118Z,99085.66
2022-09-09T07:51:26.370Z,99086.91
2022-09-09T07:53:56.637Z,99093.09
2022-09-09T07:56:24.122Z,99094.78
2022-09-09T07:58:53.332Z,99093.75
2022-09-09T08:01:26.168Z,99100.94
2022-09-09T08:04:01.761Z,99100.78
2022-09-09T08:06:31.881Z,99094.03
2022-09-09T08:08:58.425Z,99097.34
2022-09-09T08:11:28.218Z,99105.84
2022-09-09T08:14:00.242Z,99101.50
2022-09-09T08:16:32.765Z,99097.09
2022-09-09T08:19:00.649Z,99099.41
2022-09-09T08:21:30.524Z,99093.13
2022-09-09T08:24:00.923Z,99092.31
2022-09-09T08:26:35.974Z,99103.22
2022-09-09T08:29:05.025Z,99103.00
2022-09-09T08:31:38.382Z,99104.66
2022-09-09T08:34:07.580Z,99105.50
2022-09-09T08:36:37.690Z,99115.91
2022-09-09T08:39:06.061Z,99111.50
2022-09-09T08:41:51.598Z,99106.84
2022-09-09T08:44:32.601Z,99105.38
2022-09-09T08:47:05.167Z,99099.38
2022-09-09T08:50:25.633Z,99092.66
2022-09-09T08:53:03.152Z,99097.25
2022-09-09T08:55:56.243Z,99103.50
2022-09-09T08:58:31.737Z,99094.53
2022-09-09T09:01:18.471Z,99095.34
2022-09-09T09:04:02.179Z,99103.81
2022-09-09T09:06:37.165Z,99098.66
2022-09-09T09:09:31.270Z,99101.50
2022-09-09T09:12:01.830Z,99105.97
2022-09-09T09:14:36.632Z,99103.88
2022-09-09T09:17:17.210Z,99091.66
2022-09-09T09:19:45.017Z,99088.81
2022-09-09T09:22:21.542Z,99100.50
2022-09-09T09:24:56.012Z,99097.06
2022-09-09T09:27:48.293Z,99102.97
2022-09-09T09:30:29.409Z,99107.00
2022-09-09T09:33:09.749Z,99106.06
2022-09-09T09:35:41.689Z,99108.13
2022-09-09T09:41:10.427Z,99099.25
2022-09-09T09:43:40.696Z,99091.09
2022-09-09T09:46:26.462Z,99094.28
2022-09-09T09:49:02.849Z,99103.09
2022-09-09T09:51:33.308Z,99103.41
2022-09-09T09:54:14.781Z,99109.44
2022-09-09T09:56:43.792Z,99113.91
2022-09-09T09:59:39.326Z,99112.63
2022-09-09T10:02:25.722Z,99105.84
2022-09-09T10:05:17.754Z,99100.25
2022-09-09T10:07:48.916Z,99105.16
2022-09-09T10:10:48.155Z,99099.41
2022-09-09T10:13:40.734Z,99103.03
2022-09-09T10:16:30.943Z,99102.88
2022-09-09T10:19:04.058Z,99097.47
2022-09-09T10:21:48.596Z,99092.03
2022-09-09T10:24:33.552Z,99088.19
2022-09-09T10:27:21.152Z,99070.56
2022-09-09T10:30:00.222Z,99070.47
2022-09-09T10:32:39.747Z,99066.41
2022-09-09T10:35:56.935Z,99060.84
2022-09-09T10:38:30.654Z,99055.03
2022-09-09T10:40:57.403Z,99069.50
2022-09-09T10:43:32.668Z,99062.06
2022-09-09T10:46:10.035Z,99071.34
2022-09-09T10:49:05.102Z,99067.59
2022-09-09T10:51:46.006Z,99065.69
2022-09-09T10:54:31.489Z,99060.03
2022-09-09T10:57:04.769Z,99081.53
2022-09-09T10:59:37.712Z,99068.22
2022-09-09T11:02:10.204Z,99066.16
2022-09-09T11:04:45.985Z,99058.81
2022-09-09T11:07:19.770Z,99068.47
2022-09-09T11:09:54.518Z,99068.03
2022-09-09T11:12:24.790Z,99069.25
2022-09-09T11:15:06.798Z,99081.31
2022-09-09T11:17:47.870Z,99070.13
2022-09-09T11:20:15.723Z,99074.19
2022-09-09T11:23:03.997Z,99074.22
2022-09-09T11:25:37.466Z,99068.44
2022-09-09T11:28:23.282Z,99067.44
2022-09-09T11:31:17.147Z,99059.03
2022-09-09T11:33:58.484Z,99047.94
2022-09-09T11:36:53.950Z,99058.84
2022-09-09T11:39:51.706Z,99055.31
2022-09-09T11:42:25.020Z,99058.09
2022-09-09T11:44:52.618Z,99046.94
2022-09-09T11:47:30.314Z,99050.50
2022-09-09T11:50:28.125Z,99050.72
2022-09-09T11:53:13.832Z,99051.16
2022-09-09T11:55:40.913Z,99051.94
2022-09-09T11:58:17.798Z,99053.63
2022-09-09T12:00:49.152Z,99051.00
2022-09-09T12:03:37.482Z,99057.47
2022-09-09T12:06:34.365Z,99052.38
2022-09-09T12:09:13.086Z,99045.16
2022-09-09T12:11:39.941Z,99043.69
2022-09-09T12:14:22.071Z,99040.41
2022-09-09T12:16:48.578Z,99056.59
2022-09-09T12:19:26.362Z,99047.38
2022-09-09T12:22:12.383Z,99051.22
2022-09-09T12:24:55.492Z,99057.22
2022-09-09T12:27:26.986Z,99055.75
2022-09-09T12:30:16.079Z,99052.97
2022-09-09T12:32:42.478Z,99070.28
2022-09-09T12:35:20.455Z,99102.19
2022-09-09T12:37:53.683Z,99141.91
2022-09-09T12:40:33.259Z,99122.38
2022-09-09T12:43:02.842Z,99107.63
2022-09-09T12:45:32.605Z,99097.06
2022-09-09T12:48:04.376Z,99080.72
2022-09-09T12:50:37.819Z,99073.34
2022-09-09T12:53:27.355Z,99064.91
2022-09-09T12:55:58.470Z,99062.84
2022-09-09T12:58:25.938Z,99043.66
2022-09-09T13:00:57.168Z,99037.25
2022-09-09T13:03:24.560Z,99035.56
2022-09-09T13:05:51.427Z,99041.34
2022-09-09T13:08:21.681Z,99030.81
2022-09-09T13:11:02.558Z,99026.22
2022-09-09T13:13:38.872Z,99032.03
2022-09-09T13:16:09.291Z,99024.09
2022-09-09T13:18:39.117Z,99022.88
2022-09-09T13:21:05.864Z,99019.31
2022-09-09T13:23:36.022Z,99007.56
2022-09-09T13:26:07.023Z,99015.63
2022-09-09T13:28:34.676Z,99006.28
2022-09-09T13:31:07.935Z,99005.78
2022-09-09T13:33:38.967Z,98996.38
2022-09-09T13:36:05.484Z,98993.00
2022-09-09T13:38:41.349Z,98998.81
2022-09-09T13:41:09.172Z,99009.59
2022-09-09T13:43:37.655Z,99015.47
2022-09-09T13:46:06.305Z,99022.50
2022-09-09T13:48:32.836Z,99018.63
2022-09-09T13:51:05.579Z,99026.50
2022-09-09T13:53:31.966Z,99030.03
2022-09-09T13:55:59.134Z,99034.56
2022-09-09T13:58:26.226Z,99042.63
2022-09-09T14:00:53.720Z,99050.84
2022-09-09T14:03:20.745Z,99070.03
2022-09-09T14:05:47.494Z,99059.63
2022-09-09T14:08:22.365Z,99064.66
2022-09-09T14:10:48.721Z,99068.75
2022-09-09T14:13:16.531Z,99054.34
2022-09-09T14:15:42.891Z,99048.94
2022-09-09T14:18:10.702Z,99048.41
2022-09-09T14:20:37.018Z,99044.66
2022-09-09T14:23:03.704Z,99034.63
2022-09-09T14:25:30.035Z,99035.22
2022-09-09T14:27:57.127Z,99019.59
2022-09-09T14:30:23.460Z,99013.94
2022-09-09T14:32:49.741Z,99019.03
2022-09-09T14:35:16.134Z,99024.84
2022-09-09T14:37:42.418Z,99028.13
2022-09-09T14:40:09.024Z,99024.97
2022-09-09T14:42:35.360Z,99022.94
2022-09-09T14:45:02.006Z,99025.22
2022-09-09T14:47:28.342Z,99031.84
2022-09-09T14:49:54.677Z,99031.28
2022-09-09T14:52:21.445Z,99028.84
2022-09-09T14:54:47.801Z,99029.63
2022-09-09T14:57:14.215Z,99036.66
2022-09-09T14:59:40.552Z,99028.69
2022-09-09T15:02:09.122Z,99047.25
2022-09-09T15:04:36.348Z,99041.28
2022-09-09T15:07:02.697Z,99051.81
2022-09-09T15:09:29.056Z,99061.50
2022-09-09T15:11:55.908Z,99067.91
2022-09-09T15:14:22.582Z,99064.56
2022-09-09T15:16:51.712Z,99069.47
2022-09-09T15:19:18.057Z,99080.19
2022-09-09T15:21:44.380Z,99075.31
2022-09-09T15:24:11.305Z,99080.56
2022-09-09T15:26:39.299Z,99093.50
2022-09-09T15:29:05.570Z,99097.13
2022-09-09T15:31:32.902Z,99099.81
2022-09-09T15:34:03.325Z,99101.25
2022-09-09T15:36:30.994Z,99101.63
2022-09-09T15:38:57.394Z,99107.94
2022-09-09T15:41:23.986Z,99105.41
2022-09-09T15:43:51.901Z,99115.47
2022-09-09T15:46:18.220Z,99111.88
2022-09-09T15:48:45.537Z,99108.03
2022-09-09T15:51:31.134Z,99099.22
2022-09-09T15:54:00.839Z,99101.28
2022-09-09T15:56:28.183Z,99105.47
2022-09-09T15:58:56.188Z,99098.69
2022-09-09T16:01:22.566Z,99097.50
2022-09-09T16:03:51.067Z,99107.00
2022-09-09T16:06:18.597Z,99104.31
2022-09-09T16:08:46.109Z,99098.69
2022-09-09T16:11:17.143Z,99093.34
2022-09-09T16:13:47.882Z,99095.13
2022-09-09T16:16:18.352Z,99090.31
2022-09-09T16:18:48.752Z,99092.50
2022-09-09T16:21:25.976Z,99090.50
2022-09-09T16:23:54.271Z,99087.38
2022-09-09T16:26:21.122Z,99087.25
2022-09-09T16:28:47.928Z,99095.25
2022-09-09T16:31:15.357Z,99097.56
2022-09-09T16:33:42.561Z,99097.94
2022-09-09T16:36:10.322Z,99099.31
2022-09-09T16:38:37.285Z,99102.81
2022-09-09T16:41:05.952Z,99109.84
2022-09-09T16:43:32.769Z,99099.84
2022-09-09T16:46:01.193Z,99103.09
2022-09-09T16:48:31.338Z,99107.16
2022-09-09T16:51:05.992Z,99110.09
2022-09-09T16:53:35.483Z,99112.38
2022-09-09T16:56:09.216Z,99108.34
2022-09-09T16:58:35.786Z,99112.69
2022-09-09T17:01:05.075Z,99111.38
2022-09-09T17:03:32.600Z,99117.94
2022-09-09T17:06:02.710Z,99114.78
2022-09-09T17:08:30.475Z,99118.13
2022-09-09T17:10:57.465Z,99121.31
2022-09-09T17:13:23.944Z,99133.31
2022-09-09T17:15:50.258Z,99130.34
2022-09-09T17:18:18.026Z,99129.34
2022-09-09T17:20:46.708Z,99127.94
2022-09-09T17:23:16.197Z,99127.31
2022-09-09T17:25:42.916Z,99136.16
2022-09-09T17:28:09.263Z,99137.53
2022-09-09T17:30:36.244Z,99137.25
2022-09-09T17:33:02.561Z,99146.44
2022-09-09T17:35:28.861Z,99138.81
2022-09-09T17:37:55.594Z,99136.66
2022-09-09T17:40:21.984Z,99138.50
2022-09-09T17:42:48.347Z,99132.84
2022-09-09T17:45:15.234Z,99133.97
2022-09-09T17:47:43.668Z,99134.91
2022-09-09T17:50:13.542Z,99131.19
2022-09-09T17:52:41.466Z,99133.59
2022-09-09T17:55:09.963Z,99134.28
2022-09-09T17:57:36.355Z,99141.84
2022-09-09T18:00:03.357Z,99137.97
2022-09-09T18:02:38.943Z,99147.84
2022-09-09T18:05:20.767Z,99142.31
2022-09-09T18:07:55.045Z,99141.50
2022-09-09T18:10:21.499Z,99145.72
2022-09-09T18:12:48.316Z,99147.78
2022-09-09T18:15:24.137Z,99138.09
2022-09-09T18:17:54.862Z,99144.81
2022-09-09T18:20:22.189Z,99143.31
2022-09-09T18:22:48.503Z,99151.66
2022-09-09T18:25:14.796Z,99145.84
2022-09-09T18:27:41.074Z,99152.19
2022-09-09T18:30:07.765Z,99148.50
2022-09-09T18:32:34.141Z,99147.78
2022-09-09T18:35:00.865Z,99156.53
2022-09-09T18:37:27.245Z,99166.47
2022-09-09T18:39:53.543Z,99163.47
2022-09-09T18:42:19.888Z,99163.47
2022-09-09T18:44:46.186Z,99165.31
2022-09-09T18:47:12.492Z,99160.13
2022-09-09T18:49:38.772Z,99163.06
2022-09-09T18:52:07.709Z,99169.00
2022-09-09T18:54:36.096Z,99167.50
2022-09-09T18:57:02.692Z,99168.34
2022-09-09T18:59:29.106Z,99165.13
2022-09-09T19:01:55.528Z,99177.25
2022-09-09T19:04:22.610Z,99168.91
2022-09-09T19:06:49.991Z,99172.03
2022-09-09T19:09:17.892Z,99165.91
2022-09-09T19:11:44.637Z,99166.25
2022-09-09T19:14:11.978Z,99165.19
2022-09-09T19:16:40.451Z,99161.41
2022-09-09T19:19:12.374Z,99166.25
2022-09-09T19:21:39.552Z,99180.81
2022-09-09T19:24:07.733Z,99177.59
2022-09-09T19:26:37.009Z,99186.47
2022-09-09T19:29:03.352Z,99180.38
2022-09-09T19:31:30.269Z,99182.41
2022-09-09T19:33:57.073Z,99182.22
2022-09-09T19:36:24.500Z,99183.22
2022-09-09T19:38:50.960Z,99173.56
2022-09-09T19:41:18.466Z,99178.34
2022-09-09T19:43:45.550Z,99187.25
2022-09-09T19:46:12.622Z,99176.91
2022-09-09T19:48:40.697Z,99172.91
2022-09-09T19:51:11.762Z,99180.28
2022-09-09T19:53:39.514Z,99178.78
2022-09-09T19:56:06.066Z,99186.09
2022-09-09T19:58:34.222Z,99186.97
2022-09-09T20:01:13.646Z,99187.03
2022-09-09T20:03:41.110Z,99190.50
2022-09-09T20:06:08.566Z,99194.22
2022-09-09T20:08:35.990Z,99200.38
2022-09-09T20:11:02.641Z,99198.03
2022-09-09T20:13:29.857Z,99197.56
2022-09-09T20:16:05.947Z,99202.22
2022-09-09T20:18:34.653Z,99204.03
2022-09-09T20:21:02.570Z,99201.19
2022-09-09T20:23:30.603Z,99196.56
2022-09-09T20:26:00.814Z,99191.75
2022-09-09T20:28:28.531Z,99190.22
2022-09-09T20:30:55.148Z,99194.91
2022-09-09T20:33:21.970Z,99198.22
2022-09-09T20:35:51.292Z,99189.88
2022-09-09T20:38:18.102Z,99190.16
2022-09-09T20:40:44.458Z,99183.88
2022-09-09T20:43:14.047Z,99186.69
2022-09-09T20:45:43.707Z,99182.22
2022-09-09T20:48:16.207Z,99192.63
2022-09-09T20:50:45.782Z,99192.28
2022-09-09T20:53:12.268Z,99190.59
2022-09-09T20:55:41.671Z,99197.63
2022-09-09T20:58:08.819Z,99210.69
2022-09-09T21:00:37.280Z,99204.69
2022-09-09T21:03:06.040Z,99200.00
2022-09-09T21:05:35.391Z,99210.69
2022-09-09T21:08:40.945Z,99209.53
2022-09-09T21:11:07.840Z,99202.72
2022-09-09T21:13:36.910Z,99194.06
2022-09-09T21:16:04.726Z,99205.72
2022-09-09T21:18:31.174Z,99203.81
2022-09-09T21:20:57.642Z,99207.72
2022-09-09T21:23:24.484Z,99207.88
2022-09-09T21:25:51.439Z,99209.53
2022-09-09T21:28:18.037Z,99207.03
2022-09-09T21:30:48.012Z,99215.22
2022-09-09T21:33:14.935Z,99204.53
2022-09-09T21:35:41.593Z,99206.88
2022-09-09T21:38:09.593Z,99210.53
2022-09-09T21:40:39.579Z,99207.56
2022-09-09T21:43:06.263Z,99208.06
2022-09-09T21:45:35.888Z,99206.88
2022-09-09T21:48:02.277Z,99214.22
2022-09-09T21:50:29.296Z,99211.06
2022-09-09T21:52:55.665Z,99217.25
2022-09-09T21:55:22.003Z,99218.41
2022-09-09T21:57:48.331Z,99224.94
2022-09-09T22:00:18.194Z,99235.94
2022-09-09T22:02:44.946Z,99236.78
2022-09-09T22:05:11.382Z,99236.09
2022-09-09T22:07:37.702Z,99245.78
2022-09-09T22:10:04.157Z,99241.28
2022-09-09T22:12:30.926Z,99233.09
2022-09-09T22:14:57.224Z,99242.63
2022-09-09T22:17:24.679Z,99241.44
2022-09-09T22:19:51.637Z,99235.81
2022-09-09T22:22:18.541Z,99235.78
2022-09-09T22:24:45.242Z,99243.13
2022-09-09T22:27:13.478Z,99241.44
2022-09-09T22:29:39.998Z,99236.47
2022-09-09T22:32:07.492Z,99236.47
2022-09-09T22:34:34.710Z,99233.13
2022-09-09T22:37:02.189Z,99228.78
2022-09-09T22:39:29.221Z,99222.28
2022-09-09T22:41:56.051Z,99230.78
2022-09-09T22:44:24.068Z,99228.00
2022-09-09T22:46:50.464Z,99230.13
2022-09-09T22:49:16.860Z,99235.28
2022-09-09T22:51:43.897Z,99235.47
2022-09-09T22:54:10.221Z,99238.31
2022-09-09T22:56:36.580Z,99234.13
2022-09-09T22:59:02.870Z,99244.78
2022-09-09T23:01:29.472Z,99237.13
2022-09-09T23:03:59.086Z,99235.47
2022-09-09T23:06:26.797Z,99241.63
2022-09-09T23:08:57.758Z,99243.28
2022-09-09T23:11:30.342Z,99245.13
2022-09-09T23:13:57.901Z,99245.44
2022-09-09T23:16:39.504Z,99245.13
2022-09-09T23:19:10.765Z,99242.59
2022-09-09T23:21:38.257Z,99245.28
2022-09-09T23:24:05.790Z,99247.13
2022-09-09T23:26:32.906Z,99253.63
2022-09-09T23:28:59.924Z,99246.13
2022-09-09T23:31:27.660Z,99247.28
2022-09-09T23:33:58.095Z,99242.81
2022-09-09T23:36:24.982Z,99248.78
2022-09-09T23:38:51.448Z,99246.13
2022-09-09T23:41:21.705Z,99250.78
2022-09-09T23:43:48.816Z,99243.63
2022-09-09T23:46:16.587Z,99239.78
2022-09-09T23:48:43.347Z,99248.94
2022-09-09T23:51:13.021Z,99245.94
2022-09-09T23:53:40.034Z,99248.25
2022-09-09T23:56:06.453Z,99239.78
2022-09-09T23:58:33.477Z,99244.97
